sensor_id;sensor_type;location;lat;lon;timestamp;P1;durP1;ratioP1;P2;durP2;ratioP2
35606;SDS011;21729;58.392;15.656;2024-03-07T00:00:06;25.02;;;6.97;;
35606;SDS011;21729;58.392;15.656;2024-03-07T00:02:39;31.20;;;5.88;;
35606;SDS011;21729;58.392;15.656;2024-03-07T00:05:07;28.50;;;5.43;;
35606;SDS011;21729;58.392;15.656;2024-03-07T00:07:34;22.58;;;5.35;;
35606;SDS011;21729;58.392;15.656;2024-03-07T00:10:03;22.10;;;5.30;;
35606;SDS011;21729;58.392;15.656;2024-03-07T00:12:32;25.90;;;4.47;;
35606;SDS011;21729;58.392;15.656;2024-03-07T00:15:00;30.17;;;4.40;;
35606;SDS011;21729;58.392;15.656;2024-03-07T00:17:29;23.27;;;4.40;;
35606;SDS011;21729;58.392;15.656;2024-03-07T00:19:56;19.42;;;4.82;;
35606;SDS011;21729;58.392;15.656;2024-03-07T00:22:23;24.13;;;4.70;;
35606;SDS011;21729;58.392;15.656;2024-03-07T00:24:52;22.53;;;4.73;;
35606;SDS011;21729;58.392;15.656;2024-03-07T00:27:19;22.73;;;4.43;;
35606;SDS011;21729;58.392;15.656;2024-03-07T00:29:46;21.48;;;5.07;;
35606;SDS011;21729;58.392;15.656;2024-03-07T00:32:18;28.03;;;4.60;;
35606;SDS011;21729;58.392;15.656;2024-03-07T00:34:46;21.73;;;4.82;;
35606;SDS011;21729;58.392;15.656;2024-03-07T00:37:14;26.55;;;4.88;;
35606;SDS011;21729;58.392;15.656;2024-03-07T00:39:41;27.80;;;4.90;;
35606;SDS011;21729;58.392;15.656;2024-03-07T00:42:08;22.08;;;4.30;;
35606;SDS011;21729;58.392;15.656;2024-03-07T00:44:35;16.92;;;4.22;;
35606;SDS011;21729;58.392;15.656;2024-03-07T00:47:03;26.35;;;4.65;;
35606;SDS011;21729;58.392;15.656;2024-03-07T00:49:30;22.15;;;4.40;;
35606;SDS011;21729;58.392;15.656;2024-03-07T00:51:59;17.58;;;4.63;;
35606;SDS011;21729;58.392;15.656;2024-03-07T00:54:26;14.30;;;4.07;;
35606;SDS011;21729;58.392;15.656;2024-03-07T00:56:53;11.55;;;3.95;;
35606;SDS011;21729;58.392;15.656;2024-03-07T00:59:21;11.38;;;4.00;;
35606;SDS011;21729;58.392;15.656;2024-03-07T01:01:48;10.40;;;4.13;;
35606;SDS011;21729;58.392;15.656;2024-03-07T01:04:15;7.22;;;3.65;;
35606;SDS011;21729;58.392;15.656;2024-03-07T01:06:42;7.55;;;4.10;;
35606;SDS011;21729;58.392;15.656;2024-03-07T01:09:11;7.85;;;3.40;;
35606;SDS011;21729;58.392;15.656;2024-03-07T01:11:42;8.00;;;3.53;;
35606;SDS011;21729;58.392;15.656;2024-03-07T01:14:10;11.30;;;3.97;;
35606;SDS011;21729;58.392;15.656;2024-03-07T01:16:37;13.23;;;4.17;;
35606;SDS011;21729;58.392;15.656;2024-03-07T01:19:04;11.20;;;4.27;;
35606;SDS011;21729;58.392;15.656;2024-03-07T01:21:32;11.18;;;4.47;;
35606;SDS011;21729;58.392;15.656;2024-03-07T01:23:59;9.80;;;4.30;;
35606;SDS011;21729;58.392;15.656;2024-03-07T01:26:28;10.73;;;4.72;;
35606;SDS011;21729;58.392;15.656;2024-03-07T01:28:55;10.82;;;4.82;;
35606;SDS011;21729;58.392;15.656;2024-03-07T01:31:23;11.05;;;5.00;;
35606;SDS011;21729;58.392;15.656;2024-03-07T01:33:50;11.70;;;5.03;;
35606;SDS011;21729;58.392;15.656;2024-03-07T01:36:18;15.82;;;5.38;;
35606;SDS011;21729;58.392;15.656;2024-03-07T01:38:45;15.60;;;5.03;;
35606;SDS011;21729;58.392;15.656;2024-03-07T01:41:12;15.90;;;5.47;;
35606;SDS011;21729;58.392;15.656;2024-03-07T01:43:41;14.50;;;5.72;;
35606;SDS011;21729;58.392;15.656;2024-03-07T01:46:08;13.80;;;5.72;;
35606;SDS011;21729;58.392;15.656;2024-03-07T01:48:36;20.30;;;5.80;;
35606;SDS011;21729;58.392;15.656;2024-03-07T01:51:05;21.38;;;6.00;;
35606;SDS011;21729;58.392;15.656;2024-03-07T01:53:33;16.33;;;5.45;;
35606;SDS011;21729;58.392;15.656;2024-03-07T01:56:01;18.10;;;6.10;;
35606;SDS011;21729;58.392;15.656;2024-03-07T01:58:29;18.70;;;5.82;;
35606;SDS011;21729;58.392;15.656;2024-03-07T02:00:59;16.45;;;5.65;;
35606;SDS011;21729;58.392;15.656;2024-03-07T02:03:26;15.75;;;5.60;;
35606;SDS011;21729;58.392;15.656;2024-03-07T02:05:53;13.18;;;5.88;;
35606;SDS011;21729;58.392;15.656;2024-03-07T02:08:20;15.18;;;5.70;;
35606;SDS011;21729;58.392;15.656;2024-03-07T02:10:47;13.75;;;5.80;;
35606;SDS011;21729;58.392;15.656;2024-03-07T02:13:15;10.27;;;5.53;;
35606;SDS011;21729;58.392;15.656;2024-03-07T02:15:42;14.23;;;6.10;;
35606;SDS011;21729;58.392;15.656;2024-03-07T02:18:11;11.95;;;5.95;;
35606;SDS011;21729;58.392;15.656;2024-03-07T02:20:43;11.82;;;5.88;;
35606;SDS011;21729;58.392;15.656;2024-03-07T02:23:11;12.32;;;5.70;;
35606;SDS011;21729;58.392;15.656;2024-03-07T02:25:39;15.38;;;5.88;;
35606;SDS011;21729;58.392;15.656;2024-03-07T02:28:12;13.57;;;5.18;;
35606;SDS011;21729;58.392;15.656;2024-03-07T02:30:39;17.35;;;5.60;;
35606;SDS011;21729;58.392;15.656;2024-03-07T02:33:06;18.15;;;5.55;;
35606;SDS011;21729;58.392;15.656;2024-03-07T02:35:34;17.08;;;5.47;;
35606;SDS011;21729;58.392;15.656;2024-03-07T02:38:04;32.28;;;6.72;;
35606;SDS011;21729;58.392;15.656;2024-03-07T02:40:31;37.22;;;7.43;;
35606;SDS011;21729;58.392;15.656;2024-03-07T02:42:58;20.35;;;6.20;;
35606;SDS011;21729;58.392;15.656;2024-03-07T02:45:26;19.77;;;6.90;;
35606;SDS011;21729;58.392;15.656;2024-03-07T02:47:54;21.03;;;6.53;;
35606;SDS011;21729;58.392;15.656;2024-03-07T02:50:21;16.60;;;6.28;;
35606;SDS011;21729;58.392;15.656;2024-03-07T02:52:48;27.88;;;6.80;;
35606;SDS011;21729;58.392;15.656;2024-03-07T02:55:19;28.73;;;6.70;;
35606;SDS011;21729;58.392;15.656;2024-03-07T02:57:46;26.80;;;6.35;;
35606;SDS011;21729;58.392;15.656;2024-03-07T03:00:13;26.55;;;6.80;;
35606;SDS011;21729;58.392;15.656;2024-03-07T03:02:45;19.58;;;6.80;;
35606;SDS011;21729;58.392;15.656;2024-03-07T03:05:13;20.38;;;6.18;;
35606;SDS011;21729;58.392;15.656;2024-03-07T03:07:41;20.55;;;7.03;;
35606;SDS011;21729;58.392;15.656;2024-03-07T03:10:19;38.13;;;7.25;;
35606;SDS011;21729;58.392;15.656;2024-03-07T03:12:49;16.67;;;6.28;;
35606;SDS011;21729;58.392;15.656;2024-03-07T03:15:18;18.02;;;6.35;;
35606;SDS011;21729;58.392;15.656;2024-03-07T03:17:46;14.90;;;5.80;;
35606;SDS011;21729;58.392;15.656;2024-03-07T03:20:13;26.13;;;5.97;;
35606;SDS011;21729;58.392;15.656;2024-03-07T03:22:51;13.57;;;5.00;;
35606;SDS011;21729;58.392;15.656;2024-03-07T03:25:20;19.17;;;5.50;;
35606;SDS011;21729;58.392;15.656;2024-03-07T03:27:48;15.90;;;5.70;;
35606;SDS011;21729;58.392;15.656;2024-03-07T03:30:15;16.27;;;5.45;;
35606;SDS011;21729;58.392;15.656;2024-03-07T03:32:44;14.93;;;4.78;;
35606;SDS011;21729;58.392;15.656;2024-03-07T03:35:12;9.57;;;5.25;;
35606;SDS011;21729;58.392;15.656;2024-03-07T03:37:40;21.00;;;5.20;;
35606;SDS011;21729;58.392;15.656;2024-03-07T03:40:08;14.75;;;5.03;;
35606;SDS011;21729;58.392;15.656;2024-03-07T03:42:38;20.90;;;4.97;;
35606;SDS011;21729;58.392;15.656;2024-03-07T03:45:06;11.45;;;4.30;;
35606;SDS011;21729;58.392;15.656;2024-03-07T03:47:35;15.45;;;4.53;;
35606;SDS011;21729;58.392;15.656;2024-03-07T03:50:03;8.80;;;4.00;;
35606;SDS011;21729;58.392;15.656;2024-03-07T03:52:30;13.65;;;4.60;;
35606;SDS011;21729;58.392;15.656;2024-03-07T03:54:57;19.42;;;4.65;;
35606;SDS011;21729;58.392;15.656;2024-03-07T03:57:24;11.15;;;4.68;;
35606;SDS011;21729;58.392;15.656;2024-03-07T03:59:53;21.30;;;4.90;;
35606;SDS011;21729;58.392;15.656;2024-03-07T04:02:21;9.17;;;4.27;;
35606;SDS011;21729;58.392;15.656;2024-03-07T04:04:48;8.63;;;4.63;;
35606;SDS011;21729;58.392;15.656;2024-03-07T04:07:17;6.82;;;4.55;;
35606;SDS011;21729;58.392;15.656;2024-03-07T04:09:44;8.90;;;4.93;;
35606;SDS011;21729;58.392;15.656;2024-03-07T04:12:12;9.13;;;5.15;;
35606;SDS011;21729;58.392;15.656;2024-03-07T04:14:40;14.40;;;5.37;;
35606;SDS011;21729;58.392;15.656;2024-03-07T04:17:10;12.98;;;5.35;;
35606;SDS011;21729;58.392;15.656;2024-03-07T04:19:38;13.98;;;5.00;;
35606;SDS011;21729;58.392;15.656;2024-03-07T04:22:06;13.00;;;5.03;;
35606;SDS011;21729;58.392;15.656;2024-03-07T04:24:33;12.00;;;4.43;;
35606;SDS011;21729;58.392;15.656;2024-03-07T04:27:01;19.77;;;5.20;;
35606;SDS011;21729;58.392;15.656;2024-03-07T04:29:30;23.48;;;5.13;;
35606;SDS011;21729;58.392;15.656;2024-03-07T04:31:57;21.30;;;4.88;;
35606;SDS011;21729;58.392;15.656;2024-03-07T04:34:26;8.85;;;4.88;;
35606;SDS011;21729;58.392;15.656;2024-03-07T04:36:53;26.33;;;5.65;;
35606;SDS011;21729;58.392;15.656;2024-03-07T04:39:20;6.47;;;4.63;;
35606;SDS011;21729;58.392;15.656;2024-03-07T04:41:53;11.50;;;5.07;;
35606;SDS011;21729;58.392;15.656;2024-03-07T04:44:20;26.75;;;5.38;;
35606;SDS011;21729;58.392;15.656;2024-03-07T04:46:48;10.40;;;4.63;;
35606;SDS011;21729;58.392;15.656;2024-03-07T04:49:16;15.60;;;4.80;;
35606;SDS011;21729;58.392;15.656;2024-03-07T04:51:44;9.60;;;4.60;;
35606;SDS011;21729;58.392;15.656;2024-03-07T04:54:11;8.38;;;4.43;;
35606;SDS011;21729;58.392;15.656;2024-03-07T04:56:39;7.78;;;4.50;;
35606;SDS011;21729;58.392;15.656;2024-03-07T04:59:06;6.83;;;4.50;;
35606;SDS011;21729;58.392;15.656;2024-03-07T05:01:33;20.23;;;5.40;;
35606;SDS011;21729;58.392;15.656;2024-03-07T05:04:00;11.63;;;5.13;;
35606;SDS011;21729;58.392;15.656;2024-03-07T05:06:28;15.97;;;5.20;;
35606;SDS011;21729;58.392;15.656;2024-03-07T05:09:00;26.48;;;5.38;;
35606;SDS011;21729;58.392;15.656;2024-03-07T05:11:28;10.13;;;5.38;;
35606;SDS011;21729;58.392;15.656;2024-03-07T05:13:56;9.05;;;4.88;;
35606;SDS011;21729;58.392;15.656;2024-03-07T05:16:24;10.35;;;5.63;;
35606;SDS011;21729;58.392;15.656;2024-03-07T05:18:51;14.10;;;5.32;;
35606;SDS011;21729;58.392;15.656;2024-03-07T05:21:18;8.70;;;5.22;;
35606;SDS011;21729;58.392;15.656;2024-03-07T05:24:05;7.95;;;5.00;;
35606;SDS011;21729;58.392;15.656;2024-03-07T05:26:33;15.63;;;5.35;;
35606;SDS011;21729;58.392;15.656;2024-03-07T05:29:02;63.33;;;7.40;;
35606;SDS011;21729;58.392;15.656;2024-03-07T05:31:33;23.73;;;5.97;;
35606;SDS011;21729;58.392;15.656;2024-03-07T05:34:00;14.32;;;5.65;;
35606;SDS011;21729;58.392;15.656;2024-03-07T05:36:29;26.30;;;6.70;;
35606;SDS011;21729;58.392;15.656;2024-03-07T05:38:57;9.57;;;5.65;;
35606;SDS011;21729;58.392;15.656;2024-03-07T05:41:25;9.45;;;5.60;;
35606;SDS011;21729;58.392;15.656;2024-03-07T05:43:54;19.00;;;6.22;;
35606;SDS011;21729;58.392;15.656;2024-03-07T05:46:22;32.72;;;6.38;;
35606;SDS011;21729;58.392;15.656;2024-03-07T05:48:49;10.93;;;6.28;;
35606;SDS011;21729;58.392;15.656;2024-03-07T05:51:21;11.48;;;6.35;;
35606;SDS011;21729;58.392;15.656;2024-03-07T05:53:48;17.83;;;6.63;;
35606;SDS011;21729;58.392;15.656;2024-03-07T05:56:15;9.88;;;5.85;;
35606;SDS011;21729;58.392;15.656;2024-03-07T05:58:44;11.70;;;5.72;;
35606;SDS011;21729;58.392;15.656;2024-03-07T06:01:11;12.83;;;6.10;;
35606;SDS011;21729;58.392;15.656;2024-03-07T06:03:39;11.07;;;6.33;;
35606;SDS011;21729;58.392;15.656;2024-03-07T06:06:06;14.13;;;6.20;;
35606;SDS011;21729;58.392;15.656;2024-03-07T06:08:36;17.73;;;6.10;;
35606;SDS011;21729;58.392;15.656;2024-03-07T06:11:05;9.68;;;5.50;;
35606;SDS011;21729;58.392;15.656;2024-03-07T06:13:32;10.27;;;5.85;;
35606;SDS011;21729;58.392;15.656;2024-03-07T06:16:00;27.48;;;6.15;;
35606;SDS011;21729;58.392;15.656;2024-03-07T06:18:30;11.00;;;5.20;;
35606;SDS011;21729;58.392;15.656;2024-03-07T06:20:57;10.88;;;5.50;;
35606;SDS011;21729;58.392;15.656;2024-03-07T06:23:25;11.95;;;5.07;;
35606;SDS011;21729;58.392;15.656;2024-03-07T06:25:53;13.07;;;5.35;;
35606;SDS011;21729;58.392;15.656;2024-03-07T06:28:23;10.93;;;5.27;;
35606;SDS011;21729;58.392;15.656;2024-03-07T06:30:52;12.98;;;5.13;;
35606;SDS011;21729;58.392;15.656;2024-03-07T06:33:21;7.53;;;5.50;;
35606;SDS011;21729;58.392;15.656;2024-03-07T06:35:48;10.27;;;5.30;;
35606;SDS011;21729;58.392;15.656;2024-03-07T06:38:16;13.73;;;4.60;;
35606;SDS011;21729;58.392;15.656;2024-03-07T06:40:43;10.05;;;4.80;;
35606;SDS011;21729;58.392;15.656;2024-03-07T06:43:10;9.60;;;4.30;;
35606;SDS011;21729;58.392;15.656;2024-03-07T06:45:38;28.47;;;5.27;;
35606;SDS011;21729;58.392;15.656;2024-03-07T06:48:07;7.00;;;4.32;;
35606;SDS011;21729;58.392;15.656;2024-03-07T06:50:36;7.28;;;4.50;;
35606;SDS011;21729;58.392;15.656;2024-03-07T06:53:03;14.40;;;4.80;;
35606;SDS011;21729;58.392;15.656;2024-03-07T06:55:32;9.95;;;4.93;;
35606;SDS011;21729;58.392;15.656;2024-03-07T06:58:00;8.77;;;4.40;;
35606;SDS011;21729;58.392;15.656;2024-03-07T07:00:29;28.75;;;5.07;;
35606;SDS011;21729;58.392;15.656;2024-03-07T07:03:00;4.53;;;3.75;;
35606;SDS011;21729;58.392;15.656;2024-03-07T07:05:30;4.57;;;3.67;;
35606;SDS011;21729;58.392;15.656;2024-03-07T07:07:58;7.82;;;4.10;;
35606;SDS011;21729;58.392;15.656;2024-03-07T07:10:26;8.45;;;3.80;;
35606;SDS011;21729;58.392;15.656;2024-03-07T07:12:53;5.32;;;3.80;;
35606;SDS011;21729;58.392;15.656;2024-03-07T07:15:20;7.90;;;4.17;;
35606;SDS011;21729;58.392;15.656;2024-03-07T07:17:48;7.33;;;4.03;;
35606;SDS011;21729;58.392;15.656;2024-03-07T07:20:15;7.88;;;4.35;;
35606;SDS011;21729;58.392;15.656;2024-03-07T07:22:43;6.78;;;4.68;;
35606;SDS011;21729;58.392;15.656;2024-03-07T07:25:14;6.97;;;4.28;;
35606;SDS011;21729;58.392;15.656;2024-03-07T07:27:43;4.95;;;4.03;;
35606;SDS011;21729;58.392;15.656;2024-03-07T07:30:11;5.05;;;3.92;;
35606;SDS011;21729;58.392;15.656;2024-03-07T07:32:40;7.28;;;4.20;;
35606;SDS011;21729;58.392;15.656;2024-03-07T07:35:08;5.83;;;4.30;;
35606;SDS011;21729;58.392;15.656;2024-03-07T07:37:38;5.07;;;4.03;;
35606;SDS011;21729;58.392;15.656;2024-03-07T07:40:05;6.00;;;4.10;;
35606;SDS011;21729;58.392;15.656;2024-03-07T07:42:36;5.30;;;4.17;;
35606;SDS011;21729;58.392;15.656;2024-03-07T07:45:05;4.77;;;3.77;;
35606;SDS011;21729;58.392;15.656;2024-03-07T07:47:37;9.38;;;3.65;;
35606;SDS011;21729;58.392;15.656;2024-03-07T07:50:06;6.07;;;3.70;;
35606;SDS011;21729;58.392;15.656;2024-03-07T07:52:39;9.57;;;4.32;;
35606;SDS011;21729;58.392;15.656;2024-03-07T07:55:07;6.50;;;4.13;;
35606;SDS011;21729;58.392;15.656;2024-03-07T07:57:43;8.40;;;4.18;;
35606;SDS011;21729;58.392;15.656;2024-03-07T08:00:12;8.57;;;4.20;;
35606;SDS011;21729;58.392;15.656;2024-03-07T08:02:47;6.50;;;4.00;;
35606;SDS011;21729;58.392;15.656;2024-03-07T08:05:16;7.70;;;3.80;;
35606;SDS011;21729;58.392;15.656;2024-03-07T08:07:44;6.37;;;4.20;;
35606;SDS011;21729;58.392;15.656;2024-03-07T08:10:12;6.47;;;3.70;;
35606;SDS011;21729;58.392;15.656;2024-03-07T08:12:40;5.65;;;3.65;;
35606;SDS011;21729;58.392;15.656;2024-03-07T08:15:11;6.20;;;3.50;;
35606;SDS011;21729;58.392;15.656;2024-03-07T08:17:41;5.68;;;3.75;;
35606;SDS011;21729;58.392;15.656;2024-03-07T08:20:10;4.68;;;3.55;;
35606;SDS011;21729;58.392;15.656;2024-03-07T08:22:38;6.63;;;3.58;;
35606;SDS011;21729;58.392;15.656;2024-03-07T08:25:07;3.45;;;2.97;;
35606;SDS011;21729;58.392;15.656;2024-03-07T08:27:35;6.72;;;3.30;;
35606;SDS011;21729;58.392;15.656;2024-03-07T08:30:04;5.07;;;3.30;;
35606;SDS011;21729;58.392;15.656;2024-03-07T08:32:34;5.97;;;3.80;;
35606;SDS011;21729;58.392;15.656;2024-03-07T08:35:02;3.97;;;3.60;;
35606;SDS011;21729;58.392;15.656;2024-03-07T08:37:34;7.32;;;3.70;;
35606;SDS011;21729;58.392;15.656;2024-03-07T08:40:02;4.78;;;3.75;;
35606;SDS011;21729;58.392;15.656;2024-03-07T08:42:32;4.65;;;3.83;;
35606;SDS011;21729;58.392;15.656;2024-03-07T08:44:59;4.53;;;3.17;;
35606;SDS011;21729;58.392;15.656;2024-03-07T08:47:29;4.18;;;3.08;;
35606;SDS011;21729;58.392;15.656;2024-03-07T08:49:58;3.63;;;3.08;;
35606;SDS011;21729;58.392;15.656;2024-03-07T08:52:26;4.55;;;3.10;;
35606;SDS011;21729;58.392;15.656;2024-03-07T08:54:53;3.70;;;3.20;;
35606;SDS011;21729;58.392;15.656;2024-03-07T08:57:21;3.03;;;2.80;;
35606;SDS011;21729;58.392;15.656;2024-03-07T08:59:48;4.23;;;3.40;;
35606;SDS011;21729;58.392;15.656;2024-03-07T09:02:15;3.35;;;3.00;;
35606;SDS011;21729;58.392;15.656;2024-03-07T09:04:42;4.88;;;3.38;;
35606;SDS011;21729;58.392;15.656;2024-03-07T09:07:11;3.63;;;3.15;;
35606;SDS011;21729;58.392;15.656;2024-03-07T09:09:39;6.32;;;3.67;;
35606;SDS011;21729;58.392;15.656;2024-03-07T09:12:08;4.15;;;3.05;;
35606;SDS011;21729;58.392;15.656;2024-03-07T09:14:35;3.80;;;2.97;;
35606;SDS011;21729;58.392;15.656;2024-03-07T09:17:03;4.57;;;3.15;;
35606;SDS011;21729;58.392;15.656;2024-03-07T09:19:30;3.90;;;3.15;;
35606;SDS011;21729;58.392;15.656;2024-03-07T09:21:57;4.07;;;3.15;;
35606;SDS011;21729;58.392;15.656;2024-03-07T09:24:26;3.40;;;2.97;;
35606;SDS011;21729;58.392;15.656;2024-03-07T09:26:53;6.53;;;3.22;;
35606;SDS011;21729;58.392;15.656;2024-03-07T09:29:21;4.07;;;3.07;;
35606;SDS011;21729;58.392;15.656;2024-03-07T09:31:49;4.95;;;3.03;;
35606;SDS011;21729;58.392;15.656;2024-03-07T09:34:18;6.18;;;4.35;;
35606;SDS011;21729;58.392;15.656;2024-03-07T09:36:46;5.07;;;3.20;;
35606;SDS011;21729;58.392;15.656;2024-03-07T09:39:14;4.30;;;3.10;;
35606;SDS011;21729;58.392;15.656;2024-03-07T09:41:42;5.28;;;4.63;;
35606;SDS011;21729;58.392;15.656;2024-03-07T09:44:10;4.45;;;3.38;;
35606;SDS011;21729;58.392;15.656;2024-03-07T09:46:42;4.47;;;3.38;;
35606;SDS011;21729;58.392;15.656;2024-03-07T09:49:13;4.87;;;3.30;;
35606;SDS011;21729;58.392;15.656;2024-03-07T09:51:40;5.68;;;3.22;;
35606;SDS011;21729;58.392;15.656;2024-03-07T09:54:09;4.30;;;3.10;;
35606;SDS011;21729;58.392;15.656;2024-03-07T09:56:37;5.05;;;4.07;;
35606;SDS011;21729;58.392;15.656;2024-03-07T09:59:11;4.32;;;3.60;;
35606;SDS011;21729;58.392;15.656;2024-03-07T10:01:39;4.63;;;3.80;;
35606;SDS011;21729;58.392;15.656;2024-03-07T10:04:08;3.90;;;3.58;;
35606;SDS011;21729;58.392;15.656;2024-03-07T10:06:39;4.03;;;3.67;;
35606;SDS011;21729;58.392;15.656;2024-03-07T10:09:07;4.27;;;3.70;;
35606;SDS011;21729;58.392;15.656;2024-03-07T10:11:34;4.32;;;3.70;;
35606;SDS011;21729;58.392;15.656;2024-03-07T10:14:01;3.80;;;3.42;;
35606;SDS011;21729;58.392;15.656;2024-03-07T10:16:31;4.35;;;3.65;;
35606;SDS011;21729;58.392;15.656;2024-03-07T10:18:58;5.63;;;3.70;;
35606;SDS011;21729;58.392;15.656;2024-03-07T10:21:26;5.45;;;3.83;;
35606;SDS011;21729;58.392;15.656;2024-03-07T10:24:03;5.78;;;3.78;;
35606;SDS011;21729;58.392;15.656;2024-03-07T10:26:34;5.18;;;4.07;;
35606;SDS011;21729;58.392;15.656;2024-03-07T10:29:03;4.35;;;3.70;;
35606;SDS011;21729;58.392;15.656;2024-03-07T10:31:32;5.80;;;4.03;;
35606;SDS011;21729;58.392;15.656;2024-03-07T10:34:02;5.57;;;4.38;;
35606;SDS011;21729;58.392;15.656;2024-03-07T10:36:29;6.53;;;4.43;;
35606;SDS011;21729;58.392;15.656;2024-03-07T10:38:57;6.28;;;3.85;;
35606;SDS011;21729;58.392;15.656;2024-03-07T10:41:37;6.55;;;4.05;;
35606;SDS011;21729;58.392;15.656;2024-03-07T10:44:11;7.22;;;3.72;;
35606;SDS011;21729;58.392;15.656;2024-03-07T10:46:43;5.70;;;4.15;;
35606;SDS011;21729;58.392;15.656;2024-03-07T10:49:13;5.53;;;3.78;;
35606;SDS011;21729;58.392;15.656;2024-03-07T10:51:44;6.63;;;4.45;;
35606;SDS011;21729;58.392;15.656;2024-03-07T10:54:20;9.07;;;4.57;;
35606;SDS011;21729;58.392;15.656;2024-03-07T10:57:00;6.95;;;4.15;;
35606;SDS011;21729;58.392;15.656;2024-03-07T10:59:37;6.55;;;4.82;;
35606;SDS011;21729;58.392;15.656;2024-03-07T11:02:13;6.18;;;4.18;;
35606;SDS011;21729;58.392;15.656;2024-03-07T11:04:47;7.97;;;4.72;;
35606;SDS011;21729;58.392;15.656;2024-03-07T11:07:15;7.35;;;4.90;;
35606;SDS011;21729;58.392;15.656;2024-03-07T11:09:42;8.50;;;5.10;;
35606;SDS011;21729;58.392;15.656;2024-03-07T11:12:11;6.88;;;5.10;;
35606;SDS011;21729;58.392;15.656;2024-03-07T11:14:40;7.25;;;5.20;;
35606;SDS011;21729;58.392;15.656;2024-03-07T11:17:13;8.97;;;5.07;;
35606;SDS011;21729;58.392;15.656;2024-03-07T11:19:41;8.98;;;5.32;;
35606;SDS011;21729;58.392;15.656;2024-03-07T11:22:10;8.20;;;4.70;;
35606;SDS011;21729;58.392;15.656;2024-03-07T11:24:40;6.93;;;5.03;;
35606;SDS011;21729;58.392;15.656;2024-03-07T11:27:09;10.82;;;5.07;;
35606;SDS011;21729;58.392;15.656;2024-03-07T11:29:43;8.07;;;5.07;;
35606;SDS011;21729;58.392;15.656;2024-03-07T11:32:19;8.07;;;4.72;;
35606;SDS011;21729;58.392;15.656;2024-03-07T11:34:48;5.85;;;4.38;;
35606;SDS011;21729;58.392;15.656;2024-03-07T11:37:19;9.20;;;4.22;;
35606;SDS011;21729;58.392;15.656;2024-03-07T11:40:06;6.90;;;4.15;;
35606;SDS011;21729;58.392;15.656;2024-03-07T11:42:43;7.20;;;4.72;;
35606;SDS011;21729;58.392;15.656;2024-03-07T11:45:13;8.27;;;4.20;;
35606;SDS011;21729;58.392;15.656;2024-03-07T11:47:51;6.63;;;3.88;;
35606;SDS011;21729;58.392;15.656;2024-03-07T11:50:25;6.00;;;3.73;;
35606;SDS011;21729;58.392;15.656;2024-03-07T11:52:52;5.90;;;3.72;;
35606;SDS011;21729;58.392;15.656;2024-03-07T11:55:20;4.45;;;3.25;;
35606;SDS011;21729;58.392;15.656;2024-03-07T11:57:47;6.50;;;3.20;;
35606;SDS011;21729;58.392;15.656;2024-03-07T12:00:16;4.18;;;3.50;;
35606;SDS011;21729;58.392;15.656;2024-03-07T12:02:44;6.65;;;3.50;;
35606;SDS011;21729;58.392;15.656;2024-03-07T12:05:15;5.60;;;3.50;;
35606;SDS011;21729;58.392;15.656;2024-03-07T12:07:44;5.40;;;3.83;;
35606;SDS011;21729;58.392;15.656;2024-03-07T12:10:12;5.80;;;3.50;;
35606;SDS011;21729;58.392;15.656;2024-03-07T12:12:39;4.90;;;3.47;;
35606;SDS011;21729;58.392;15.656;2024-03-07T12:15:07;7.85;;;3.83;;
35606;SDS011;21729;58.392;15.656;2024-03-07T12:17:44;5.35;;;3.65;;
35606;SDS011;21729;58.392;15.656;2024-03-07T12:20:15;4.38;;;3.42;;
35606;SDS011;21729;58.392;15.656;2024-03-07T12:22:55;6.68;;;3.47;;
35606;SDS011;21729;58.392;15.656;2024-03-07T12:25:24;6.50;;;3.75;;
35606;SDS011;21729;58.392;15.656;2024-03-07T12:28:01;6.88;;;3.75;;
35606;SDS011;21729;58.392;15.656;2024-03-07T12:30:31;5.20;;;3.67;;
35606;SDS011;21729;58.392;15.656;2024-03-07T12:33:00;4.32;;;3.30;;
35606;SDS011;21729;58.392;15.656;2024-03-07T12:35:31;3.90;;;2.97;;
35606;SDS011;21729;58.392;15.656;2024-03-07T12:37:58;5.07;;;3.50;;
35606;SDS011;21729;58.392;15.656;2024-03-07T12:40:26;5.38;;;3.40;;
35606;SDS011;21729;58.392;15.656;2024-03-07T12:42:59;5.50;;;3.40;;
35606;SDS011;21729;58.392;15.656;2024-03-07T12:45:28;5.10;;;3.67;;
35606;SDS011;21729;58.392;15.656;2024-03-07T12:47:58;5.47;;;3.55;;
35606;SDS011;21729;58.392;15.656;2024-03-07T12:50:29;7.82;;;3.60;;
35606;SDS011;21729;58.392;15.656;2024-03-07T12:53:01;6.30;;;3.40;;
35606;SDS011;21729;58.392;15.656;2024-03-07T12:55:30;6.45;;;3.35;;
35606;SDS011;21729;58.392;15.656;2024-03-07T12:57:58;6.65;;;3.50;;
35606;SDS011;21729;58.392;15.656;2024-03-07T13:00:25;5.97;;;3.55;;
35606;SDS011;21729;58.392;15.656;2024-03-07T13:02:55;5.25;;;3.45;;
35606;SDS011;21729;58.392;15.656;2024-03-07T13:05:22;5.60;;;3.78;;
35606;SDS011;21729;58.392;15.656;2024-03-07T13:07:51;5.50;;;3.70;;
35606;SDS011;21729;58.392;15.656;2024-03-07T13:10:20;5.00;;;3.78;;
35606;SDS011;21729;58.392;15.656;2024-03-07T13:12:47;5.75;;;3.25;;
35606;SDS011;21729;58.392;15.656;2024-03-07T13:15:14;6.38;;;3.40;;
35606;SDS011;21729;58.392;15.656;2024-03-07T13:17:42;5.93;;;3.50;;
35606;SDS011;21729;58.392;15.656;2024-03-07T13:20:10;4.95;;;3.35;;
35606;SDS011;21729;58.392;15.656;2024-03-07T13:22:39;6.60;;;3.60;;
35606;SDS011;21729;58.392;15.656;2024-03-07T13:25:08;5.22;;;3.75;;
35606;SDS011;21729;58.392;15.656;2024-03-07T13:27:51;7.45;;;3.90;;
35606;SDS011;21729;58.392;15.656;2024-03-07T13:30:22;5.75;;;3.55;;
35606;SDS011;21729;58.392;15.656;2024-03-07T13:32:52;4.03;;;3.42;;
35606;SDS011;21729;58.392;15.656;2024-03-07T13:35:21;5.30;;;3.70;;
35606;SDS011;21729;58.392;15.656;2024-03-07T13:37:49;5.45;;;3.40;;
35606;SDS011;21729;58.392;15.656;2024-03-07T13:40:16;5.18;;;3.40;;
35606;SDS011;21729;58.392;15.656;2024-03-07T13:42:52;6.35;;;3.85;;
35606;SDS011;21729;58.392;15.656;2024-03-07T13:45:21;8.40;;;3.92;;
35606;SDS011;21729;58.392;15.656;2024-03-07T13:47:49;5.97;;;3.75;;
35606;SDS011;21729;58.392;15.656;2024-03-07T13:50:17;6.27;;;4.00;;
35606;SDS011;21729;58.392;15.656;2024-03-07T13:52:47;4.85;;;3.60;;
35606;SDS011;21729;58.392;15.656;2024-03-07T13:55:40;5.05;;;3.50;;
35606;SDS011;21729;58.392;15.656;2024-03-07T13:58:25;5.82;;;3.78;;
35606;SDS011;21729;58.392;15.656;2024-03-07T14:01:11;10.55;;;3.50;;
35606;SDS011;21729;58.392;15.656;2024-03-07T14:03:51;5.17;;;3.53;;
35606;SDS011;21729;58.392;15.656;2024-03-07T14:06:42;6.07;;;3.42;;
35606;SDS011;21729;58.392;15.656;2024-03-07T14:09:35;7.38;;;3.33;;
35606;SDS011;21729;58.392;15.656;2024-03-07T14:12:21;7.13;;;3.40;;
35606;SDS011;21729;58.392;15.656;2024-03-07T14:21:26;5.93;;;3.25;;
35606;SDS011;21729;58.392;15.656;2024-03-07T14:24:20;3.67;;;3.15;;
35606;SDS011;21729;58.392;15.656;2024-03-07T14:27:09;7.10;;;3.50;;
35606;SDS011;21729;58.392;15.656;2024-03-07T14:29:48;4.75;;;2.90;;
35606;SDS011;21729;58.392;15.656;2024-03-07T14:32:25;5.00;;;3.10;;
35606;SDS011;21729;58.392;15.656;2024-03-07T14:34:57;3.92;;;3.10;;
35606;SDS011;21729;58.392;15.656;2024-03-07T14:37:32;5.20;;;3.10;;
35606;SDS011;21729;58.392;15.656;2024-03-07T14:40:07;3.30;;;3.00;;
35606;SDS011;21729;58.392;15.656;2024-03-07T14:42:36;5.47;;;2.93;;
35606;SDS011;21729;58.392;15.656;2024-03-07T14:45:08;4.68;;;3.15;;
35606;SDS011;21729;58.392;15.656;2024-03-07T14:47:39;5.13;;;3.17;;